KRPH

Graham Municipal Airport

Graham, Texas, USA
METAR KRPH 170510Z AUTO 00000KT 10SM BKN026 OVC035 09/09 A3030 RMK AO2 T00920085
Observed Flight Rules
Oct-17 @ 05:10 UTC (23 minutes ago) Marginal Visual Flight Rules
Visibility Clouds
10 miles
  • Broken at 2,600' AGL
  • Overcast at 3,500' AGL
Temperatures Readings
Current 9°C / 48°F
Dewpoint 9°C / 48°F
Humidity 100%
Altimeter 30.3" Hg
Pressure 1026 hPa
Elevation 342
METAR KRPH 170510Z AUTO 00000KT 10SM BKN026 OVC035 09/09 A3030 RMK AO2 T00920085
Observed Flight Rules
Oct-17 @ 05:10 UTC
(23 minutes ago)
MVFR
Clouds
  • Broken at 2,600' AGL
  • Overcast at 3,500' AGL
Temperature Dewpoint
9°C / 48°F 9°C / 48°F
Humidity Altimeter Pressure
100% 30.3" Hg 1026 hPa